sensor_id;sensor_type;location;lat;lon;timestamp;pressure;altitude;pressure_sealevel;temperature;humidity
35676;BME280;21790;42.668;23.298;2023-02-23T00:05:23;94532.22;;;15.39;35.91
35676;BME280;21790;42.668;23.298;2023-02-23T00:14:49;94538.00;;;15.30;35.72
35676;BME280;21790;42.668;23.298;2023-02-23T00:19:51;94532.09;;;15.17;35.64
35676;BME280;21790;42.668;23.298;2023-02-23T00:22:39;94543.13;;;15.37;35.03
35676;BME280;21790;42.668;23.298;2023-02-23T00:25:22;94547.38;;;15.27;35.23
35676;BME280;21790;42.668;23.298;2023-02-23T00:28:00;94546.34;;;15.30;35.14
35676;BME280;21790;42.668;23.298;2023-02-23T00:33:51;94546.06;;;14.91;36.16
35676;BME280;21790;42.668;23.298;2023-02-23T00:36:54;94548.06;;;14.91;36.16
35676;BME280;21790;42.668;23.298;2023-02-23T00:39:22;94541.53;;;14.94;36.22
35676;BME280;21790;42.668;23.298;2023-02-23T00:41:57;94545.72;;;14.84;36.28
35676;BME280;21790;42.668;23.298;2023-02-23T00:45:08;94546.28;;;14.88;36.17
35676;BME280;21790;42.668;23.298;2023-02-23T00:48:02;94546.88;;;14.97;36.13
35676;BME280;21790;42.668;23.298;2023-02-23T00:53:33;94540.44;;;14.86;36.10
35676;BME280;21790;42.668;23.298;2023-02-23T00:56:16;94544.28;;;15.25;35.53
35676;BME280;21790;42.668;23.298;2023-02-23T00:59:00;94534.63;;;15.15;35.73
35676;BME280;21790;42.668;23.298;2023-02-23T01:02:02;94538.94;;;15.16;35.67
35676;BME280;21790;42.668;23.298;2023-02-23T01:04:37;94523.13;;;15.02;35.97
35676;BME280;21790;42.668;23.298;2023-02-23T01:07:19;94536.84;;;14.80;36.28
35676;BME280;21790;42.668;23.298;2023-02-23T01:13:50;94544.47;;;14.85;36.26
35676;BME280;21790;42.668;23.298;2023-02-23T01:23:04;94544.28;;;14.62;36.72
35676;BME280;21790;42.668;23.298;2023-02-23T01:29:15;94540.31;;;14.43;37.20
35676;BME280;21790;42.668;23.298;2023-02-23T01:35:30;94537.63;;;14.54;37.48
35676;BME280;21790;42.668;23.298;2023-02-23T03:13:33;94524.88;;;13.76;38.60
35676;BME280;21790;42.668;23.298;2023-02-23T03:55:54;94567.28;;;13.07;40.12
35676;BME280;21790;42.668;23.298;2023-02-23T03:58:59;94558.09;;;13.30;39.64
35676;BME280;21790;42.668;23.298;2023-02-23T04:02:02;94559.94;;;13.18;39.93
35676;BME280;21790;42.668;23.298;2023-02-23T04:04:53;94563.16;;;13.17;39.95
35676;BME280;21790;42.668;23.298;2023-02-23T04:07:40;94563.66;;;13.15;40.29
35676;BME280;21790;42.668;23.298;2023-02-23T04:51:19;94527.03;;;12.96;39.76
35676;BME280;21790;42.668;23.298;2023-02-23T06:05:52;94610.91;;;13.06;40.35
35676;BME280;21790;42.668;23.298;2023-02-23T06:11:40;94626.19;;;14.21;46.84
35676;BME280;21790;42.668;23.298;2023-02-23T06:27:38;94625.13;;;15.68;37.63
35676;BME280;21790;42.668;23.298;2023-02-23T06:30:07;94634.16;;;16.00;36.97
35676;BME280;21790;42.668;23.298;2023-02-23T06:32:46;94616.31;;;16.28;36.56
35676;BME280;21790;42.668;23.298;2023-02-23T06:38:38;94635.03;;;16.76;35.79
35676;BME280;21790;42.668;23.298;2023-02-23T06:41:10;94637.38;;;17.05;34.91
35676;BME280;21790;42.668;23.298;2023-02-23T06:43:36;94636.38;;;17.20;34.39
35676;BME280;21790;42.668;23.298;2023-02-23T06:46:02;94639.94;;;17.48;34.23
35676;BME280;21790;42.668;23.298;2023-02-23T06:48:28;94644.00;;;17.58;34.03
35676;BME280;21790;42.668;23.298;2023-02-23T06:50:57;94627.25;;;17.75;34.24
35676;BME280;21790;42.668;23.298;2023-02-23T06:53:23;94635.88;;;17.93;33.62
35676;BME280;21790;42.668;23.298;2023-02-23T06:55:49;94631.50;;;18.15;33.37
35676;BME280;21790;42.668;23.298;2023-02-23T06:58:14;94623.06;;;18.26;32.91
35676;BME280;21790;42.668;23.298;2023-02-23T07:00:42;94630.00;;;18.08;32.68
35676;BME280;21790;42.668;23.298;2023-02-23T07:03:08;94631.06;;;17.83;32.78
35676;BME280;21790;42.668;23.298;2023-02-23T07:05:55;94641.16;;;18.19;32.50
35676;BME280;21790;42.668;23.298;2023-02-23T07:08:29;94629.47;;;18.15;32.21
35676;BME280;21790;42.668;23.298;2023-02-23T07:11:07;94623.59;;;18.19;32.13
35676;BME280;21790;42.668;23.298;2023-02-23T07:14:00;94629.16;;;18.35;32.97
35676;BME280;21790;42.668;23.298;2023-02-23T07:16:28;94640.38;;;18.19;32.25
35676;BME280;21790;42.668;23.298;2023-02-23T07:18:57;94634.78;;;18.24;32.33
35676;BME280;21790;42.668;23.298;2023-02-23T07:21:23;94632.94;;;18.44;32.32
35676;BME280;21790;42.668;23.298;2023-02-23T07:23:52;94632.19;;;18.37;31.76
35676;BME280;21790;42.668;23.298;2023-02-23T07:26:17;94633.72;;;18.33;31.63
35676;BME280;21790;42.668;23.298;2023-02-23T07:28:43;94637.00;;;18.48;31.81
35676;BME280;21790;42.668;23.298;2023-02-23T07:31:11;94625.56;;;18.40;31.68
35676;BME280;21790;42.668;23.298;2023-02-23T07:33:36;94631.41;;;18.43;31.78
35676;BME280;21790;42.668;23.298;2023-02-23T07:36:02;94627.88;;;18.36;31.65
35676;BME280;21790;42.668;23.298;2023-02-23T07:38:30;94627.56;;;18.46;31.50
35676;BME280;21790;42.668;23.298;2023-02-23T07:40:56;94629.13;;;18.41;31.38
35676;BME280;21790;42.668;23.298;2023-02-23T07:43:21;94620.00;;;18.35;31.66
35676;BME280;21790;42.668;23.298;2023-02-23T07:45:49;94626.28;;;18.58;31.63
35676;BME280;21790;42.668;23.298;2023-02-23T07:48:16;94620.16;;;18.65;31.64
35676;BME280;21790;42.668;23.298;2023-02-23T07:50:41;94620.50;;;18.97;31.10
35676;BME280;21790;42.668;23.298;2023-02-23T07:53:09;94614.28;;;18.68;31.07
35676;BME280;21790;42.668;23.298;2023-02-23T07:55:40;94620.28;;;18.84;31.55
35676;BME280;21790;42.668;23.298;2023-02-23T07:58:06;94621.00;;;18.95;31.09
35676;BME280;21790;42.668;23.298;2023-02-23T08:00:34;94616.16;;;19.67;34.94
35676;BME280;21790;42.668;23.298;2023-02-23T08:03:02;94612.03;;;19.97;31.76
35676;BME280;21790;42.668;23.298;2023-02-23T08:05:28;94613.00;;;20.05;29.28
35676;BME280;21790;42.668;23.298;2023-02-23T08:07:54;94610.47;;;20.02;29.46
35676;BME280;21790;42.668;23.298;2023-02-23T08:10:20;94610.06;;;19.92;29.35
35676;BME280;21790;42.668;23.298;2023-02-23T08:12:46;94617.66;;;19.97;29.39
35676;BME280;21790;42.668;23.298;2023-02-23T08:15:11;94616.22;;;19.91;29.38
35676;BME280;21790;42.668;23.298;2023-02-23T08:17:37;94613.47;;;19.85;29.85
35676;BME280;21790;42.668;23.298;2023-02-23T08:20:04;94604.28;;;19.85;29.79
35676;BME280;21790;42.668;23.298;2023-02-23T08:22:30;94612.34;;;19.94;29.69
35676;BME280;21790;42.668;23.298;2023-02-23T08:24:55;94608.03;;;20.17;29.86
35676;BME280;21790;42.668;23.298;2023-02-23T08:27:21;94608.50;;;20.45;36.13
35676;BME280;21790;42.668;23.298;2023-02-23T08:29:47;94621.72;;;21.07;32.07
35676;BME280;21790;42.668;23.298;2023-02-23T08:32:12;94618.25;;;21.38;32.43
35676;BME280;21790;42.668;23.298;2023-02-23T08:34:39;94613.75;;;21.61;31.35
35676;BME280;21790;42.668;23.298;2023-02-23T08:37:08;94613.66;;;21.99;30.62
35676;BME280;21790;42.668;23.298;2023-02-23T08:39:35;94610.75;;;22.18;31.19
35676;BME280;21790;42.668;23.298;2023-02-23T08:42:02;94616.16;;;22.02;30.00
35676;BME280;21790;42.668;23.298;2023-02-23T08:44:27;94606.97;;;21.70;30.30
35676;BME280;21790;42.668;23.298;2023-02-23T08:46:55;94616.53;;;21.48;30.76
35676;BME280;21790;42.668;23.298;2023-02-23T08:49:23;94611.72;;;20.93;30.46
35676;BME280;21790;42.668;23.298;2023-02-23T08:51:50;94611.47;;;20.91;29.60
35676;BME280;21790;42.668;23.298;2023-02-23T08:54:16;94610.03;;;21.03;30.30
35676;BME280;21790;42.668;23.298;2023-02-23T08:56:42;94611.94;;;21.13;31.38
35676;BME280;21790;42.668;23.298;2023-02-23T08:59:12;94600.16;;;20.96;29.90
35676;BME280;21790;42.668;23.298;2023-02-23T09:01:38;94608.41;;;20.51;30.92
35676;BME280;21790;42.668;23.298;2023-02-23T09:04:04;94610.59;;;20.15;31.13
35676;BME280;21790;42.668;23.298;2023-02-23T09:06:31;94608.19;;;20.49;31.06
35676;BME280;21790;42.668;23.298;2023-02-23T09:08:59;94609.94;;;20.52;30.40
35676;BME280;21790;42.668;23.298;2023-02-23T09:11:25;94610.59;;;20.82;31.70
35676;BME280;21790;42.668;23.298;2023-02-23T09:13:50;94599.88;;;21.18;32.29
35676;BME280;21790;42.668;23.298;2023-02-23T09:16:16;94597.88;;;21.64;30.96
35676;BME280;21790;42.668;23.298;2023-02-23T09:18:42;94593.75;;;21.97;30.29
35676;BME280;21790;42.668;23.298;2023-02-23T09:21:16;94599.72;;;22.06;29.61
35676;BME280;21790;42.668;23.298;2023-02-23T09:23:51;94600.69;;;22.09;28.79
35676;BME280;21790;42.668;23.298;2023-02-23T09:26:20;94606.53;;;21.98;28.37
35676;BME280;21790;42.668;23.298;2023-02-23T09:28:46;94601.22;;;22.21;29.26
35676;BME280;21790;42.668;23.298;2023-02-23T09:31:15;94595.81;;;22.23;28.98
35676;BME280;21790;42.668;23.298;2023-02-23T09:33:42;94593.00;;;22.62;29.09
35676;BME280;21790;42.668;23.298;2023-02-23T09:36:08;94584.16;;;23.05;29.29
35676;BME280;21790;42.668;23.298;2023-02-23T09:38:37;94598.78;;;23.38;28.07
35676;BME280;21790;42.668;23.298;2023-02-23T09:41:08;94604.28;;;23.56;30.00
35676;BME280;21790;42.668;23.298;2023-02-23T09:49:05;94599.72;;;23.74;26.78
35676;BME280;21790;42.668;23.298;2023-02-23T09:51:36;94596.38;;;24.25;27.08
35676;BME280;21790;42.668;23.298;2023-02-23T09:54:03;94592.56;;;23.73;27.35
35676;BME280;21790;42.668;23.298;2023-02-23T09:56:39;94595.47;;;23.81;26.03
35676;BME280;21790;42.668;23.298;2023-02-23T09:59:06;94583.56;;;23.54;26.54
35676;BME280;21790;42.668;23.298;2023-02-23T10:01:51;94587.09;;;23.67;27.40
35676;BME280;21790;42.668;23.298;2023-02-23T10:04:45;94584.28;;;23.96;27.26
35676;BME280;21790;42.668;23.298;2023-02-23T10:07:38;94592.47;;;24.07;26.54
35676;BME280;21790;42.668;23.298;2023-02-23T10:13:28;94583.09;;;23.84;26.04
35676;BME280;21790;42.668;23.298;2023-02-23T10:15:54;94591.34;;;23.82;27.97
35676;BME280;21790;42.668;23.298;2023-02-23T10:18:44;94575.16;;;23.82;26.43
35676;BME280;21790;42.668;23.298;2023-02-23T10:21:33;94571.25;;;24.13;26.06
35676;BME280;21790;42.668;23.298;2023-02-23T10:24:04;94575.69;;;23.81;25.75
35676;BME280;21790;42.668;23.298;2023-02-23T10:26:50;94567.28;;;24.09;26.01
35676;BME280;21790;42.668;23.298;2023-02-23T10:29:27;94567.06;;;24.07;26.28
35676;BME280;21790;42.668;23.298;2023-02-23T10:34:47;94555.72;;;24.20;25.45
35676;BME280;21790;42.668;23.298;2023-02-23T10:37:16;94554.28;;;23.85;25.69
35676;BME280;21790;42.668;23.298;2023-02-23T10:39:42;94546.03;;;23.87;25.53
35676;BME280;21790;42.668;23.298;2023-02-23T10:42:14;94546.00;;;24.08;26.82
35676;BME280;21790;42.668;23.298;2023-02-23T10:44:43;94551.75;;;24.23;26.83
35676;BME280;21790;42.668;23.298;2023-02-23T10:47:16;94538.56;;;24.18;25.43
35676;BME280;21790;42.668;23.298;2023-02-23T10:49:48;94536.97;;;24.09;24.94
35676;BME280;21790;42.668;23.298;2023-02-23T10:52:21;94530.91;;;24.26;25.83
35676;BME280;21790;42.668;23.298;2023-02-23T10:54:51;94530.09;;;24.18;25.25
35676;BME280;21790;42.668;23.298;2023-02-23T11:02:35;94519.59;;;23.49;25.58
35676;BME280;21790;42.668;23.298;2023-02-23T11:05:01;94519.84;;;23.58;27.97
35676;BME280;21790;42.668;23.298;2023-02-23T11:07:29;94518.13;;;24.04;26.85
35676;BME280;21790;42.668;23.298;2023-02-23T11:10:22;94513.97;;;24.26;25.48
35676;BME280;21790;42.668;23.298;2023-02-23T11:12:44;94512.59;;;24.20;25.08
35676;BME280;21790;42.668;23.298;2023-02-23T11:17:54;94513.38;;;24.64;24.59
35676;BME280;21790;42.668;23.298;2023-02-23T11:20:37;94510.38;;;24.69;24.48
35676;BME280;21790;42.668;23.298;2023-02-23T11:23:33;94507.47;;;24.90;25.28
35676;BME280;21790;42.668;23.298;2023-02-23T11:26:01;94502.00;;;24.92;24.98
35676;BME280;21790;42.668;23.298;2023-02-23T11:28:34;94498.22;;;24.89;25.14
35676;BME280;21790;42.668;23.298;2023-02-23T11:31:27;94496.00;;;25.03;24.94
35676;BME280;21790;42.668;23.298;2023-02-23T11:33:48;94489.59;;;25.03;26.42
35676;BME280;21790;42.668;23.298;2023-02-23T11:36:26;94494.66;;;25.04;23.96
35676;BME280;21790;42.668;23.298;2023-02-23T11:41:33;94488.28;;;25.26;25.10
35676;BME280;21790;42.668;23.298;2023-02-23T11:44:03;94491.72;;;25.40;24.21
35676;BME280;21790;42.668;23.298;2023-02-23T11:46:31;94480.97;;;25.23;23.46
35676;BME280;21790;42.668;23.298;2023-02-23T11:49:06;94489.81;;;25.27;24.51
35676;BME280;21790;42.668;23.298;2023-02-23T11:51:35;94480.19;;;25.23;24.04
35676;BME280;21790;42.668;23.298;2023-02-23T11:54:02;94483.00;;;25.15;24.35
35676;BME280;21790;42.668;23.298;2023-02-23T11:56:31;94472.66;;;25.18;24.50
35676;BME280;21790;42.668;23.298;2023-02-23T11:59:05;94480.53;;;24.96;23.99
35676;BME280;21790;42.668;23.298;2023-02-23T12:01:38;94472.16;;;24.76;24.12
35676;BME280;21790;42.668;23.298;2023-02-23T12:06:49;94470.06;;;24.25;24.04
35676;BME280;21790;42.668;23.298;2023-02-23T12:09:23;94470.84;;;24.33;23.92
35676;BME280;21790;42.668;23.298;2023-02-23T12:12:08;94467.84;;;24.31;24.27
35676;BME280;21790;42.668;23.298;2023-02-23T12:17:18;94458.41;;;23.64;24.85
35676;BME280;21790;42.668;23.298;2023-02-23T12:19:53;94459.63;;;23.76;24.49
35676;BME280;21790;42.668;23.298;2023-02-23T12:22:24;94458.09;;;23.75;24.20
35676;BME280;21790;42.668;23.298;2023-02-23T12:25:04;94458.16;;;23.83;24.30
35676;BME280;21790;42.668;23.298;2023-02-23T12:27:42;94456.88;;;23.63;24.56
35676;BME280;21790;42.668;23.298;2023-02-23T12:30:41;94456.19;;;23.70;24.53
35676;BME280;21790;42.668;23.298;2023-02-23T12:44:30;94452.38;;;23.19;24.75
35676;BME280;21790;42.668;23.298;2023-02-23T12:47:06;94446.81;;;23.26;24.69
35676;BME280;21790;42.668;23.298;2023-02-23T12:49:50;94455.19;;;23.40;24.70
35676;BME280;21790;42.668;23.298;2023-02-23T12:52:19;94451.31;;;23.29;24.84
35676;BME280;21790;42.668;23.298;2023-02-23T12:54:45;94447.97;;;23.31;24.89
35676;BME280;21790;42.668;23.298;2023-02-23T12:57:55;94446.16;;;23.41;24.66
35676;BME280;21790;42.668;23.298;2023-02-23T13:06:10;94435.03;;;23.15;25.50
35676;BME280;21790;42.668;23.298;2023-02-23T13:16:57;94443.09;;;23.11;25.83
35676;BME280;21790;42.668;23.298;2023-02-23T13:19:40;94447.09;;;22.94;26.20
35676;BME280;21790;42.668;23.298;2023-02-23T13:22:34;94440.19;;;23.03;26.14
35676;BME280;21790;42.668;23.298;2023-02-23T13:25:16;94445.56;;;22.93;26.06
35676;BME280;21790;42.668;23.298;2023-02-23T13:27:51;94438.34;;;23.06;26.22
35676;BME280;21790;42.668;23.298;2023-02-23T13:30:18;94441.44;;;22.94;25.91
35676;BME280;21790;42.668;23.298;2023-02-23T13:32:45;94440.06;;;22.88;26.30
35676;BME280;21790;42.668;23.298;2023-02-23T13:35:16;94435.50;;;22.17;26.86
35676;BME280;21790;42.668;23.298;2023-02-23T13:40:41;94437.78;;;21.92;27.62
35676;BME280;21790;42.668;23.298;2023-02-23T13:49:31;94443.22;;;22.50;26.48
35676;BME280;21790;42.668;23.298;2023-02-23T13:52:09;94434.09;;;22.58;26.70
35676;BME280;21790;42.668;23.298;2023-02-23T13:54:51;94439.38;;;22.74;26.33
35676;BME280;21790;42.668;23.298;2023-02-23T13:57:16;94439.22;;;22.46;26.44
35676;BME280;21790;42.668;23.298;2023-02-23T13:59:43;94444.81;;;22.59;26.44
35676;BME280;21790;42.668;23.298;2023-02-23T14:05:01;94439.13;;;22.85;26.11
35676;BME280;21790;42.668;23.298;2023-02-23T14:07:30;94426.28;;;22.64;26.32
35676;BME280;21790;42.668;23.298;2023-02-23T14:10:05;94438.97;;;22.91;25.81
35676;BME280;21790;42.668;23.298;2023-02-23T14:12:35;94438.09;;;22.62;26.19
35676;BME280;21790;42.668;23.298;2023-02-23T14:18:01;94444.41;;;22.55;26.17
35676;BME280;21790;42.668;23.298;2023-02-23T14:20:37;94443.28;;;22.71;26.15
35676;BME280;21790;42.668;23.298;2023-02-23T14:25:42;94437.00;;;22.65;26.33
35676;BME280;21790;42.668;23.298;2023-02-23T14:28:36;94439.13;;;22.85;25.82
35676;BME280;21790;42.668;23.298;2023-02-23T14:41:57;94430.06;;;22.66;27.90
35676;BME280;21790;42.668;23.298;2023-02-23T14:44:36;94415.34;;;22.60;27.88
35676;BME280;21790;42.668;23.298;2023-02-23T14:47:11;94419.13;;;22.29;28.77
35676;BME280;21790;42.668;23.298;2023-02-23T14:49:42;94426.53;;;22.19;28.47
35676;BME280;21790;42.668;23.298;2023-02-23T14:52:34;94435.41;;;21.83;28.66
35676;BME280;21790;42.668;23.298;2023-02-23T14:57:37;94432.84;;;21.14;29.71
35676;BME280;21790;42.668;23.298;2023-02-23T15:00:14;94440.91;;;21.36;29.37
35676;BME280;21790;42.668;23.298;2023-02-23T15:05:44;94435.75;;;21.08;30.02
35676;BME280;21790;42.668;23.298;2023-02-23T15:08:41;94455.88;;;20.80;30.10
35676;BME280;21790;42.668;23.298;2023-02-23T15:11:13;94458.72;;;20.62;30.59
35676;BME280;21790;42.668;23.298;2023-02-23T15:13:41;94455.88;;;20.80;30.49
35676;BME280;21790;42.668;23.298;2023-02-23T15:16:19;94462.03;;;20.79;30.19
35676;BME280;21790;42.668;23.298;2023-02-23T15:18:47;94463.91;;;20.89;30.20
35676;BME280;21790;42.668;23.298;2023-02-23T15:21:20;94453.59;;;20.79;30.16
35676;BME280;21790;42.668;23.298;2023-02-23T15:23:53;94470.63;;;20.68;30.24
35676;BME280;21790;42.668;23.298;2023-02-23T15:26:28;94473.22;;;20.28;30.56
35676;BME280;21790;42.668;23.298;2023-02-23T15:29:15;94475.34;;;20.60;30.37
35676;BME280;21790;42.668;23.298;2023-02-23T15:31:43;94492.16;;;20.22;30.79
35676;BME280;21790;42.668;23.298;2023-02-23T15:34:24;94477.16;;;20.57;30.50
35676;BME280;21790;42.668;23.298;2023-02-23T15:36:56;94488.53;;;20.27;30.82
35676;BME280;21790;42.668;23.298;2023-02-23T15:39:48;94493.63;;;20.48;30.29
35676;BME280;21790;42.668;23.298;2023-02-23T15:42:22;94495.81;;;20.36;30.86
35676;BME280;21790;42.668;23.298;2023-02-23T15:45:00;94500.16;;;20.56;30.13
35676;BME280;21790;42.668;23.298;2023-02-23T15:47:31;94510.50;;;20.04;31.01
35676;BME280;21790;42.668;23.298;2023-02-23T15:52:33;94513.53;;;20.07;31.00
35676;BME280;21790;42.668;23.298;2023-02-23T15:55:03;94514.81;;;20.05;30.89
35676;BME280;21790;42.668;23.298;2023-02-23T15:57:44;94517.03;;;20.13;31.11
35676;BME280;21790;42.668;23.298;2023-02-23T16:00:33;94512.31;;;19.78;31.40
35676;BME280;21790;42.668;23.298;2023-02-23T16:03:03;94513.47;;;19.88;31.22
35676;BME280;21790;42.668;23.298;2023-02-23T16:05:32;94508.88;;;19.90;30.97
35676;BME280;21790;42.668;23.298;2023-02-23T16:08:18;94514.78;;;19.62;31.60
35676;BME280;21790;42.668;23.298;2023-02-23T16:10:49;94519.44;;;19.54;31.65
35676;BME280;21790;42.668;23.298;2023-02-23T16:13:20;94527.25;;;19.32;32.06
35676;BME280;21790;42.668;23.298;2023-02-23T16:15:47;94533.63;;;19.32;32.05
35676;BME280;21790;42.668;23.298;2023-02-23T16:21:10;94530.31;;;19.63;31.53
35676;BME280;21790;42.668;23.298;2023-02-23T16:23:46;94536.88;;;19.96;31.09
35676;BME280;21790;42.668;23.298;2023-02-23T16:26:25;94525.03;;;19.54;31.89
35676;BME280;21790;42.668;23.298;2023-02-23T16:28:56;94538.38;;;19.43;32.21
35676;BME280;21790;42.668;23.298;2023-02-23T16:31:24;94544.84;;;19.32;32.63
35676;BME280;21790;42.668;23.298;2023-02-23T16:33:56;94555.72;;;19.71;31.86
35676;BME280;21790;42.668;23.298;2023-02-23T16:36:33;94552.75;;;19.63;32.19
35676;BME280;21790;42.668;23.298;2023-02-23T16:39:08;94541.28;;;19.32;32.67
35676;BME280;21790;42.668;23.298;2023-02-23T16:41:34;94544.72;;;19.19;32.78
35676;BME280;21790;42.668;23.298;2023-02-23T16:44:01;94558.38;;;18.98;33.05
35676;BME280;21790;42.668;23.298;2023-02-23T16:46:30;94550.22;;;19.30;32.72
35676;BME280;21790;42.668;23.298;2023-02-23T16:48:56;94553.66;;;19.12;32.99
35676;BME280;21790;42.668;23.298;2023-02-23T16:51:30;94542.94;;;18.80;33.48
35676;BME280;21790;42.668;23.298;2023-02-23T16:53:56;94557.13;;;18.42;34.45
35676;BME280;21790;42.668;23.298;2023-02-23T16:56:21;94571.88;;;18.94;33.69
35676;BME280;21790;42.668;23.298;2023-02-23T16:58:49;94571.06;;;18.58;34.28
35676;BME280;21790;42.668;23.298;2023-02-23T17:01:18;94568.03;;;18.56;34.79
35676;BME280;21790;42.668;23.298;2023-02-23T17:03:43;94568.91;;;18.81;34.35
35676;BME280;21790;42.668;23.298;2023-02-23T17:06:10;94571.75;;;18.75;34.57
35676;BME280;21790;42.668;23.298;2023-02-23T17:08:36;94567.34;;;18.86;34.28
35676;BME280;21790;42.668;23.298;2023-02-23T17:11:02;94562.19;;;18.60;34.70
35676;BME280;21790;42.668;23.298;2023-02-23T17:13:30;94581.78;;;18.54;35.02
35676;BME280;21790;42.668;23.298;2023-02-23T17:16:03;94581.44;;;18.69;34.72
35676;BME280;21790;42.668;23.298;2023-02-23T17:18:33;94588.84;;;18.61;35.11
35676;BME280;21790;42.668;23.298;2023-02-23T17:21:03;94594.50;;;18.44;35.45
35676;BME280;21790;42.668;23.298;2023-02-23T17:23:31;94593.50;;;18.47;35.41
35676;BME280;21790;42.668;23.298;2023-02-23T17:26:13;94591.47;;;18.42;35.49
35676;BME280;21790;42.668;23.298;2023-02-23T17:28:38;94600.41;;;18.29;35.84
35676;BME280;21790;42.668;23.298;2023-02-23T17:31:05;94595.34;;;18.28;36.13
35676;BME280;21790;42.668;23.298;2023-02-23T17:33:31;94596.88;;;18.23;36.21
35676;BME280;21790;42.668;23.298;2023-02-23T17:35:59;94599.16;;;18.25;36.30
35676;BME280;21790;42.668;23.298;2023-02-23T17:38:25;94600.81;;;17.81;37.09
35676;BME280;21790;42.668;23.298;2023-02-23T17:40:58;94606.88;;;17.96;37.02
35676;BME280;21790;42.668;23.298;2023-02-23T17:43:26;94596.69;;;18.10;36.87
35676;BME280;21790;42.668;23.298;2023-02-23T17:45:52;94594.66;;;18.11;36.84
35676;BME280;21790;42.668;23.298;2023-02-23T17:48:19;94589.84;;;18.00;36.93
35676;BME280;21790;42.668;23.298;2023-02-23T17:50:44;94609.47;;;17.05;38.93
35676;BME280;21790;42.668;23.298;2023-02-23T17:53:10;94599.81;;;17.12;39.07
35676;BME280;21790;42.668;23.298;2023-02-23T17:55:35;94583.81;;;17.29;38.69
35676;BME280;21790;42.668;23.298;2023-02-23T17:58:01;94595.75;;;17.41;38.65
35676;BME280;21790;42.668;23.298;2023-02-23T18:00:27;94605.91;;;17.10;39.37
35676;BME280;21790;42.668;23.298;2023-02-23T18:02:53;94592.97;;;17.24;39.08
35676;BME280;21790;42.668;23.298;2023-02-23T18:05:18;94597.78;;;17.29;39.18
35676;BME280;21790;42.668;23.298;2023-02-23T18:07:44;94586.09;;;17.42;38.91
35676;BME280;21790;42.668;23.298;2023-02-23T18:10:11;94588.13;;;17.52;38.77
35676;BME280;21790;42.668;23.298;2023-02-23T18:12:40;94602.34;;;17.15;39.54
35676;BME280;21790;42.668;23.298;2023-02-23T18:15:06;94587.38;;;16.96;40.05
35676;BME280;21790;42.668;23.298;2023-02-23T18:17:32;94614.03;;;17.25;39.46
35676;BME280;21790;42.668;23.298;2023-02-23T18:19:58;94608.38;;;16.75;40.49
35676;BME280;21790;42.668;23.298;2023-02-23T18:22:24;94606.50;;;16.50;41.23
35676;BME280;21790;42.668;23.298;2023-02-23T18:24:50;94610.31;;;16.47;41.45
35676;BME280;21790;42.668;23.298;2023-02-23T18:27:17;94620.91;;;16.37;41.49
35676;BME280;21790;42.668;23.298;2023-02-23T18:29:42;94613.63;;;16.56;41.09
35676;BME280;21790;42.668;23.298;2023-02-23T18:32:09;94614.00;;;16.21;42.10
35676;BME280;21790;42.668;23.298;2023-02-23T18:34:35;94594.81;;;16.35;41.65
35676;BME280;21790;42.668;23.298;2023-02-23T18:37:02;94607.13;;;16.76;40.90
35676;BME280;21790;42.668;23.298;2023-02-23T18:39:29;94596.75;;;16.93;40.49
35676;BME280;21790;42.668;23.298;2023-02-23T18:41:55;94609.81;;;16.54;41.21
35676;BME280;21790;42.668;23.298;2023-02-23T18:44:21;94619.16;;;16.40;41.50
35676;BME280;21790;42.668;23.298;2023-02-23T18:46:47;94621.22;;;16.50;41.42
35676;BME280;21790;42.668;23.298;2023-02-23T18:49:14;94619.03;;;16.71;40.97
35676;BME280;21790;42.668;23.298;2023-02-23T18:51:40;94629.16;;;16.04;42.41
35676;BME280;21790;42.668;23.298;2023-02-23T18:54:06;94618.59;;;16.24;41.91
35676;BME280;21790;42.668;23.298;2023-02-23T18:56:37;94634.56;;;16.24;41.94
35676;BME280;21790;42.668;23.298;2023-02-23T18:59:05;94639.09;;;16.21;42.05
35676;BME280;21790;42.668;23.298;2023-02-23T19:01:32;94647.38;;;16.53;41.26
35676;BME280;21790;42.668;23.298;2023-02-23T19:04:00;94660.88;;;16.17;41.94
35676;BME280;21790;42.668;23.298;2023-02-23T19:06:27;94645.81;;;15.93;42.91
35676;BME280;21790;42.668;23.298;2023-02-23T19:08:55;94645.59;;;16.55;45.12
35676;BME280;21790;42.668;23.298;2023-02-23T19:11:26;94652.13;;;17.34;41.19
35676;BME280;21790;42.668;23.298;2023-02-23T19:13:57;94644.47;;;16.30;42.07
35676;BME280;21790;42.668;23.298;2023-02-23T19:16:25;94656.38;;;16.25;42.20
35676;BME280;21790;42.668;23.298;2023-02-23T19:18:51;94675.84;;;16.14;42.36
35676;BME280;21790;42.668;23.298;2023-02-23T19:21:18;94667.78;;;16.27;42.28
35676;BME280;21790;42.668;23.298;2023-02-23T19:23:48;94665.44;;;16.63;41.42
35676;BME280;21790;42.668;23.298;2023-02-23T19:26:14;94679.81;;;16.56;41.55
35676;BME280;21790;42.668;23.298;2023-02-23T19:28:41;94678.44;;;16.88;40.80
35676;BME280;21790;42.668;23.298;2023-02-23T19:31:10;94685.84;;;17.08;40.45
35676;BME280;21790;42.668;23.298;2023-02-23T19:33:39;94694.34;;;16.65;41.23
35676;BME280;21790;42.668;23.298;2023-02-23T19:36:11;94695.13;;;16.71;41.31
35676;BME280;21790;42.668;23.298;2023-02-23T19:38:38;94683.63;;;16.53;41.70
35676;BME280;21790;42.668;23.298;2023-02-23T19:41:15;94699.91;;;16.60;41.71
35676;BME280;21790;42.668;23.298;2023-02-23T19:43:42;94698.81;;;16.46;42.00
35676;BME280;21790;42.668;23.298;2023-02-23T19:46:10;94699.72;;;16.80;41.16
35676;BME280;21790;42.668;23.298;2023-02-23T19:48:37;94701.28;;;16.92;40.88
35676;BME280;21790;42.668;23.298;2023-02-23T19:51:12;94708.63;;;16.79;41.43
35676;BME280;21790;42.668;23.298;2023-02-23T19:53:57;94712.72;;;16.41;42.35